Verona, Ohio
Current Conditions -  °F | °C
As of 4:56 AM on Saturday 25 Oct 2014 (Local Time) from KDAY Reporting Station
Broken Clouds Broken Clouds  
Wind Chill: 50°   Ceiling: 10000
Heat Index: 50°   Visibility: 9mi
Dew Point: 45°   Wind: 9mph
Humidity: 83%   Direction: 220°SW
Pressure: 29.99"   Gusts: NA
Location:  39.9°N, 84.49°W
Report Text: KDAY 250856Z 22008KT 9SM FEW036 BKN100 10/07 A2999 RMK AO2 SLP154 T01000072 58009
Loading
Personal Weather Stations






























Interactive Weather Map
Tropical Storm Tracking
New forecast layout! Learn more

10-Day Weather Forecast

Advertisements
Track Severe Weather on mobile